createdAt,value
2023-01-11T00:00:43.812Z,0.80
2023-01-11T00:03:11.815Z,0.90
2023-01-11T00:05:40.328Z,0.95
2023-01-11T00:08:09.015Z,0.75
2023-01-11T00:10:39.663Z,0.68
2023-01-11T00:13:09.101Z,0.85
2023-01-11T00:15:38.375Z,0.80
2023-01-11T00:18:06.449Z,0.82
2023-01-11T00:20:34.617Z,0.77
2023-01-11T00:23:02.674Z,0.88
2023-01-11T00:25:30.744Z,1.00
2023-01-11T00:27:58.716Z,0.85
2023-01-11T00:30:30.354Z,0.60
2023-01-11T00:32:59.102Z,1.10
2023-01-11T00:35:28.735Z,0.90
2023-01-11T00:37:56.752Z,0.93
2023-01-11T00:40:26.369Z,0.90
2023-01-11T00:43:12.137Z,0.68
2023-01-11T00:46:02.635Z,0.65
2023-01-11T00:48:30.684Z,0.90
2023-01-11T00:50:59.431Z,1.20
2023-01-11T00:53:27.391Z,0.98
2023-01-11T00:55:57.789Z,0.80
2023-01-11T00:58:25.786Z,0.85
2023-01-11T01:00:55.061Z,0.90
2023-01-11T01:03:25.076Z,1.03
2023-01-11T01:05:55.774Z,0.80
2023-01-11T01:08:23.788Z,0.93
2023-01-11T01:10:52.745Z,0.90
2023-01-11T01:13:38.655Z,0.93
2023-01-11T01:16:08.914Z,0.77
2023-01-11T01:18:36.935Z,0.90
2023-01-11T01:21:07.475Z,0.95
2023-01-11T01:23:35.381Z,0.90
2023-01-11T01:26:04.740Z,0.85
2023-01-11T01:28:32.959Z,0.90
2023-01-11T01:31:00.954Z,0.85
2023-01-11T01:33:30.385Z,0.90
2023-01-11T01:35:58.390Z,0.98
2023-01-11T01:38:27.557Z,0.90
2023-01-11T01:40:56.943Z,1.02
2023-01-11T01:43:47.682Z,0.80
2023-01-11T01:46:16.497Z,1.00
2023-01-11T01:48:50.662Z,1.02
2023-01-11T01:51:22.123Z,0.85
2023-01-11T01:53:55.948Z,1.10
2023-01-11T01:56:29.415Z,0.80
2023-01-11T01:59:04.783Z,0.93
2023-01-11T02:01:51.088Z,0.65
2023-01-11T02:04:26.169Z,0.93
2023-01-11T02:06:59.127Z,0.70
2023-01-11T02:09:32.451Z,0.80
2023-01-11T02:12:02.035Z,0.80
2023-01-11T02:14:33.899Z,0.95
2023-01-11T02:17:01.890Z,0.93
2023-01-11T02:19:45.569Z,0.88
2023-01-11T02:22:45.331Z,1.00
2023-01-11T02:25:36.675Z,1.17
2023-01-11T02:28:12.094Z,0.80
2023-01-11T02:30:46.743Z,0.85
2023-01-11T02:33:22.829Z,0.80
2023-01-11T02:36:03.059Z,0.80
2023-01-11T02:38:37.260Z,0.80
2023-01-11T02:41:13.711Z,1.13
2023-01-11T02:44:10.516Z,0.60
2023-01-11T02:46:45.386Z,0.70
2023-01-11T02:49:19.727Z,0.88
2023-01-11T02:51:54.064Z,0.63
2023-01-11T02:54:24.203Z,0.52
2023-01-11T02:56:57.011Z,0.90
2023-01-11T02:59:32.931Z,0.40
2023-01-11T03:02:01.059Z,0.77
2023-01-11T03:04:31.405Z,1.08
2023-01-11T03:07:12.561Z,1.13
2023-01-11T03:09:52.573Z,0.63
2023-01-11T03:12:52.723Z,0.70
2023-01-11T03:16:00.313Z,0.55
2023-01-11T03:18:46.494Z,0.68
2023-01-11T03:21:26.571Z,0.60
2023-01-11T03:24:05.468Z,0.50
2023-01-11T03:26:48.130Z,0.85
2023-01-11T03:29:28.172Z,0.70
2023-01-11T03:32:09.781Z,0.73
2023-01-11T03:34:45.601Z,0.60
2023-01-11T03:37:20.206Z,0.50
2023-01-11T03:39:54.568Z,0.50
2023-01-11T03:42:24.680Z,0.40
2023-01-11T03:44:56.512Z,0.40
2023-01-11T03:47:29.689Z,0.80
2023-01-11T03:50:00.808Z,0.65
2023-01-11T03:52:34.139Z,0.60
2023-01-11T03:55:05.568Z,0.50
2023-01-11T03:57:36.314Z,0.50
2023-01-11T04:00:06.328Z,0.57
2023-01-11T04:02:40.089Z,0.52
2023-01-11T04:05:10.289Z,0.60
2023-01-11T04:07:38.269Z,0.50
2023-01-11T04:10:07.418Z,0.50
2023-01-11T04:12:35.474Z,0.40
2023-01-11T04:15:05.278Z,0.80
2023-01-11T04:17:33.582Z,0.43
2023-01-11T04:20:02.917Z,0.55
2023-01-11T04:22:30.851Z,0.50
2023-01-11T04:24:58.899Z,0.52
2023-01-11T04:27:26.805Z,0.40
2023-01-11T04:29:57.140Z,0.50
2023-01-11T04:32:26.293Z,0.40
2023-01-11T04:34:54.258Z,0.45
2023-01-11T04:37:23.566Z,0.50
2023-01-11T04:39:51.842Z,0.38
2023-01-11T04:42:19.111Z,0.50
2023-01-11T04:44:48.090Z,0.40
2023-01-11T04:47:16.732Z,0.70
2023-01-11T04:49:44.998Z,0.60
2023-01-11T04:52:14.574Z,0.30
2023-01-11T04:54:44.252Z,0.60
2023-01-11T04:57:14.207Z,0.40
2023-01-11T04:59:46.731Z,0.50
2023-01-11T05:02:15.242Z,0.50
2023-01-11T05:04:43.320Z,0.43
2023-01-11T05:07:11.861Z,0.38
2023-01-11T05:09:40.867Z,0.40
2023-01-11T05:12:10.264Z,0.40
2023-01-11T05:14:38.244Z,0.50
2023-01-11T05:17:06.274Z,0.40
2023-01-11T05:19:37.490Z,0.50
2023-01-11T05:22:05.477Z,0.63
2023-01-11T05:24:33.502Z,0.47
2023-01-11T05:27:01.425Z,0.50
2023-01-11T05:29:30.856Z,0.50
2023-01-11T05:31:58.982Z,0.60
2023-01-11T05:34:27.015Z,0.60
2023-01-11T05:36:55.092Z,0.60
2023-01-11T05:39:23.854Z,0.40
2023-01-11T05:41:51.936Z,0.45
2023-01-11T05:44:39.824Z,0.60
2023-01-11T05:47:09.266Z,0.40
2023-01-11T05:49:37.295Z,0.50
2023-01-11T05:52:05.628Z,0.70
2023-01-11T05:54:33.612Z,0.55
2023-01-11T05:57:01.561Z,0.50
2023-01-11T05:59:32.049Z,0.50
2023-01-11T06:02:00.423Z,0.52
2023-01-11T06:04:29.916Z,0.85
2023-01-11T06:06:57.875Z,0.30
2023-01-11T06:09:26.053Z,0.40
2023-01-11T06:11:53.996Z,0.65
2023-01-11T06:14:21.952Z,0.45
2023-01-11T06:16:49.999Z,0.52
2023-01-11T06:19:18.207Z,0.63
2023-01-11T06:21:47.626Z,0.70
2023-01-11T06:24:18.870Z,0.70
2023-01-11T06:26:46.894Z,0.63
2023-01-11T06:29:15.664Z,0.55
2023-01-11T06:31:46.013Z,0.70
2023-01-11T06:34:14.035Z,0.68
2023-01-11T06:36:44.484Z,0.60
2023-01-11T06:39:13.845Z,0.63
2023-01-11T06:41:43.768Z,0.80
2023-01-11T06:44:12.119Z,0.60
2023-01-11T06:46:40.214Z,0.80
2023-01-11T06:49:08.298Z,0.63
2023-01-11T06:51:36.249Z,0.80
2023-01-11T06:54:04.372Z,1.08
2023-01-11T06:56:33.674Z,1.02
2023-01-11T06:59:04.140Z,0.85
2023-01-11T07:01:32.488Z,0.90
2023-01-11T07:04:00.744Z,1.25
2023-01-11T07:06:32.035Z,1.00
2023-01-11T07:09:00.047Z,0.77
2023-01-11T07:11:27.948Z,0.90
2023-01-11T07:13:57.250Z,0.55
2023-01-11T07:16:25.502Z,0.70
2023-01-11T07:18:53.649Z,0.90
2023-01-11T07:21:21.716Z,1.10
2023-01-11T07:23:49.932Z,1.00
2023-01-11T07:26:18.238Z,1.10
2023-01-11T07:28:46.252Z,0.85
2023-01-11T07:31:15.773Z,0.90
2023-01-11T07:33:43.751Z,1.13
2023-01-11T07:36:11.755Z,1.00
2023-01-11T07:38:39.776Z,0.75
2023-01-11T07:41:27.781Z,1.02
2023-01-11T07:43:54.789Z,1.45
2023-01-11T07:46:24.321Z,1.65
2023-01-11T07:48:52.490Z,1.00
2023-01-11T07:51:24.412Z,1.15
2023-01-11T07:53:52.425Z,1.05
2023-01-11T07:56:22.343Z,1.58
2023-01-11T07:58:51.484Z,1.40
2023-01-11T08:01:19.672Z,0.88
2023-01-11T08:03:49.184Z,1.35
2023-01-11T08:06:18.946Z,0.82
2023-01-11T08:08:46.989Z,1.25
2023-01-11T08:11:32.493Z,1.27
2023-01-11T08:14:17.693Z,1.40
2023-01-11T08:16:45.680Z,1.45
2023-01-11T08:19:14.999Z,0.80
2023-01-11T08:21:45.919Z,1.40
2023-01-11T08:24:13.927Z,1.20
2023-01-11T08:26:44.299Z,1.20
2023-01-11T08:29:12.479Z,1.40
2023-01-11T08:31:40.649Z,1.20
2023-01-11T08:34:09.538Z,1.25
2023-01-11T08:36:38.926Z,1.38
2023-01-11T08:39:06.944Z,1.30
2023-01-11T08:41:38.340Z,1.05
2023-01-11T08:44:06.907Z,1.48
2023-01-11T08:46:35.034Z,1.45
2023-01-11T08:49:03.182Z,1.30
2023-01-11T08:51:32.643Z,1.40
2023-01-11T08:54:02.049Z,1.67
2023-01-11T08:56:32.580Z,1.23
2023-01-11T08:59:01.581Z,1.33
2023-01-11T09:01:29.856Z,1.60
2023-01-11T09:04:00.791Z,1.58
2023-01-11T09:06:28.795Z,1.67
2023-01-11T09:08:56.986Z,1.30
2023-01-11T09:11:43.754Z,1.40
2023-01-11T09:14:12.076Z,0.98
2023-01-11T09:16:42.437Z,1.80
2023-01-11T09:19:10.391Z,1.35
2023-01-11T09:21:38.335Z,1.27
2023-01-11T09:24:06.952Z,1.77
2023-01-11T09:26:38.004Z,1.63
2023-01-11T09:29:06.201Z,1.38
2023-01-11T09:31:34.184Z,1.50
2023-01-11T09:34:02.410Z,1.40
2023-01-11T09:36:32.138Z,1.58
2023-01-11T09:39:02.230Z,1.55
2023-01-11T09:41:44.985Z,1.50
2023-01-11T09:44:19.073Z,1.60
2023-01-11T09:46:51.836Z,1.75
2023-01-11T09:49:23.805Z,1.50
2023-01-11T09:51:53.567Z,1.80
2023-01-11T09:54:27.408Z,1.50
2023-01-11T09:57:07.923Z,1.45
2023-01-11T09:59:46.744Z,1.73
2023-01-11T10:02:29.376Z,2.00
2023-01-11T10:18:28.979Z,1.90
2023-01-11T10:18:30.326Z,1.55
2023-01-11T10:20:07.953Z,1.40
2023-01-11T10:22:42.654Z,1.90
2023-01-11T10:25:18.873Z,1.67
2023-01-11T10:27:56.891Z,1.70
2023-01-11T10:30:45.513Z,1.60
2023-01-11T10:33:29.999Z,1.58
2023-01-11T10:36:14.807Z,1.83
2023-01-11T10:39:11.081Z,1.67
2023-01-11T10:41:52.399Z,1.50
2023-01-11T10:44:30.579Z,2.15
2023-01-11T10:47:00.883Z,1.52
2023-01-11T10:49:49.574Z,1.88
2023-01-11T10:52:35.181Z,1.92
2023-01-11T10:55:13.015Z,2.15
2023-01-11T10:58:01.843Z,1.60
2023-01-11T11:00:43.067Z,1.67
2023-01-11T11:03:35.918Z,1.58
2023-01-11T11:06:10.491Z,1.80
2023-01-11T11:08:46.508Z,1.45
2023-01-11T11:11:20.394Z,1.48
2023-01-11T11:13:54.175Z,2.45
2023-01-11T11:16:38.680Z,1.88
2023-01-11T11:19:13.267Z,1.77
2023-01-11T11:21:43.858Z,1.92
2023-01-11T11:24:20.840Z,2.10
2023-01-11T11:26:57.384Z,2.10
2023-01-11T11:29:30.603Z,2.22
2023-01-11T11:32:01.004Z,1.88
2023-01-11T11:34:31.019Z,2.20
2023-01-11T11:37:01.647Z,2.13
2023-01-11T11:39:31.367Z,1.88
2023-01-11T11:42:07.622Z,2.15
2023-01-11T11:44:36.371Z,1.85
2023-01-11T11:47:06.439Z,1.92
2023-01-11T11:49:37.001Z,1.90
2023-01-11T11:52:08.425Z,1.77
2023-01-11T11:54:40.629Z,1.90
2023-01-11T11:57:17.308Z,1.77
2023-01-11T11:59:47.618Z,2.05
2023-01-11T12:02:27.782Z,1.70
2023-01-11T12:04:59.734Z,2.08
2023-01-11T12:07:34.455Z,2.05
2023-01-11T12:10:10.249Z,1.85
2023-01-11T12:12:52.298Z,1.67
2023-01-11T12:15:24.335Z,1.90
2023-01-11T12:17:52.667Z,1.70
2023-01-11T12:20:34.943Z,2.25
2023-01-11T12:23:25.399Z,2.15
2023-01-11T12:26:11.905Z,1.98
2023-01-11T12:29:07.687Z,2.25
2023-01-11T12:31:46.200Z,1.98
2023-01-11T12:34:35.655Z,2.03
2023-01-11T12:37:14.222Z,2.15
2023-01-11T12:39:55.476Z,1.98
2023-01-11T12:42:43.364Z,1.90
2023-01-11T12:45:21.561Z,2.17
2023-01-11T12:48:24.215Z,1.63
2023-01-11T12:51:07.442Z,2.15
2023-01-11T12:53:49.865Z,1.70
2023-01-11T12:59:03.552Z,1.73
2023-01-11T13:01:42.325Z,2.08
2023-01-11T13:04:36.376Z,2.50
2023-01-11T13:07:13.932Z,1.58
2023-01-11T13:09:54.183Z,2.10
2023-01-11T13:12:29.262Z,1.90
2023-01-11T13:15:07.490Z,1.77
2023-01-11T13:17:41.903Z,1.98
2023-01-11T13:20:30.901Z,2.35
2023-01-11T13:23:05.392Z,1.90
2023-01-11T13:25:39.896Z,1.80
2023-01-11T13:28:23.940Z,2.22
2023-01-11T13:30:53.139Z,1.83
2023-01-11T13:33:24.617Z,2.17
2023-01-11T13:35:58.945Z,1.77
2023-01-11T13:38:36.701Z,1.80
2023-01-11T13:41:16.303Z,1.67
2023-01-11T13:43:54.430Z,2.03
2023-01-11T13:46:35.994Z,1.88
2023-01-11T13:49:13.780Z,2.30
2023-01-11T13:51:47.569Z,1.75
2023-01-11T13:54:20.919Z,1.88
2023-01-11T13:56:56.796Z,2.53
2023-01-11T13:59:30.660Z,2.40
2023-01-11T14:02:06.251Z,2.30
2023-01-11T14:04:46.203Z,2.33
2023-01-11T14:07:26.819Z,1.90
2023-01-11T14:10:09.788Z,2.05
2023-01-11T14:13:01.179Z,2.40
2023-01-11T14:15:33.856Z,2.30
2023-01-11T14:18:19.367Z,2.17
2023-01-11T14:20:53.695Z,2.00
2023-01-11T14:23:25.634Z,1.92
2023-01-11T14:26:26.694Z,2.00
2023-01-11T14:29:08.579Z,2.00
2023-01-11T14:31:56.458Z,2.35
2023-01-11T14:34:46.007Z,2.42
2023-01-11T14:40:27.948Z,2.20
2023-01-11T14:43:28.938Z,2.10
2023-01-11T14:46:29.037Z,2.08
2023-01-11T14:49:12.697Z,2.03
2023-01-11T14:51:55.607Z,1.90
2023-01-11T14:54:28.529Z,2.05
2023-01-11T14:56:57.984Z,2.10
2023-01-11T14:59:37.890Z,2.17
2023-01-11T15:02:25.175Z,2.17
2023-01-11T15:05:31.453Z,1.88
2023-01-11T15:08:25.829Z,1.98
2023-01-11T15:10:58.669Z,2.17
2023-01-11T15:13:29.029Z,2.13
2023-01-11T15:16:26.705Z,1.98
2023-01-11T15:18:56.595Z,1.80
2023-01-11T15:21:26.323Z,2.28
2023-01-11T15:23:56.735Z,2.10
2023-01-11T15:26:26.418Z,2.17
2023-01-11T15:28:57.152Z,2.13
2023-01-11T15:31:39.097Z,1.88
2023-01-11T15:34:24.944Z,2.30
2023-01-11T15:37:12.021Z,2.55
2023-01-11T15:39:47.257Z,2.20
2023-01-11T15:42:39.305Z,2.53
2023-01-11T15:45:32.021Z,2.00
2023-01-11T15:48:17.647Z,2.00
2023-01-11T15:51:03.728Z,2.40
2023-01-11T15:54:11.952Z,1.77
2023-01-11T15:57:33.695Z,2.50
2023-01-11T16:00:34.238Z,2.72
2023-01-11T16:03:35.575Z,1.88
2023-01-11T16:06:17.125Z,2.47
2023-01-11T16:08:54.550Z,2.37
2023-01-11T16:11:33.001Z,2.58
2023-01-11T16:14:20.239Z,2.40
2023-01-11T16:16:51.803Z,2.20
2023-01-11T16:19:22.038Z,2.35
2023-01-11T16:21:55.436Z,2.38
2023-01-11T16:24:26.755Z,2.70
2023-01-11T16:26:58.495Z,2.03
2023-01-11T16:29:29.857Z,2.05
2023-01-11T16:32:00.767Z,2.40
2023-01-11T16:34:30.148Z,1.98
2023-01-11T16:37:00.365Z,2.63
2023-01-11T16:39:31.204Z,2.33
2023-01-11T16:42:03.310Z,2.13
2023-01-11T16:44:41.919Z,2.22
2023-01-11T16:47:17.077Z,2.20
2023-01-11T16:49:49.821Z,2.58
2023-01-11T16:52:41.364Z,2.25
2023-01-11T16:55:25.864Z,2.25
2023-01-11T16:57:58.168Z,2.60
2023-01-11T17:03:20.443Z,2.00
2023-01-11T17:06:00.393Z,1.77
2023-01-11T17:08:32.686Z,2.38
2023-01-11T17:11:05.337Z,2.10
2023-01-11T17:13:56.576Z,2.17
2023-01-11T17:16:31.411Z,2.00
2023-01-11T17:19:07.740Z,2.30
2023-01-11T17:21:35.842Z,2.13
2023-01-11T17:24:07.889Z,2.35
2023-01-11T17:26:43.278Z,2.13
2023-01-11T17:29:17.274Z,2.40
2023-01-11T17:31:45.757Z,2.13
2023-01-11T17:34:18.732Z,2.17
2023-01-11T17:36:47.673Z,2.67
2023-01-11T17:39:27.250Z,2.33
2023-01-11T17:42:13.216Z,2.50
2023-01-11T17:44:59.541Z,1.92
2023-01-11T17:47:28.813Z,1.85
2023-01-11T17:49:58.817Z,2.10
2023-01-11T17:52:28.340Z,2.72
2023-01-11T17:55:12.688Z,4.03
2023-01-11T17:57:40.915Z,14.98
2023-01-11T18:00:24.584Z,12.25
2023-01-11T18:02:53.374Z,10.80
2023-01-11T18:05:25.931Z,10.07
2023-01-11T18:07:57.455Z,9.27
2023-01-11T18:10:29.425Z,9.00
2023-01-11T18:13:00.653Z,8.85
2023-01-11T18:15:32.080Z,9.20
2023-01-11T18:18:01.058Z,8.15
2023-01-11T18:20:35.511Z,8.80
2023-01-11T18:23:16.779Z,8.05
2023-01-11T18:25:46.954Z,8.13
2023-01-11T18:28:31.159Z,8.82
2023-01-11T18:31:01.946Z,8.25
2023-01-11T18:33:32.823Z,8.52
2023-01-11T18:36:03.079Z,8.27
2023-01-11T18:38:33.364Z,8.20
2023-01-11T18:41:27.455Z,6.90
2023-01-11T18:43:56.336Z,6.72
2023-01-11T18:46:24.349Z,7.03
2023-01-11T18:48:52.377Z,7.20
2023-01-11T18:51:26.238Z,6.47
2023-01-11T18:53:54.304Z,6.72
2023-01-11T18:56:23.849Z,6.88
2023-01-11T18:58:51.855Z,7.57
2023-01-11T19:01:20.139Z,6.43
2023-01-11T19:03:51.284Z,6.95
2023-01-11T19:06:21.520Z,5.82
2023-01-11T19:08:49.563Z,4.15
2023-01-11T19:11:17.639Z,4.88
2023-01-11T19:13:55.689Z,5.57
2023-01-11T19:16:26.799Z,5.03
2023-01-11T19:18:55.398Z,4.57
2023-01-11T19:21:23.384Z,4.93
2023-01-11T19:23:51.496Z,4.57
2023-01-11T19:26:19.559Z,5.25
2023-01-11T19:28:47.561Z,5.47
2023-01-11T19:31:17.691Z,4.80
2023-01-11T19:33:45.843Z,4.57
2023-01-11T19:36:13.853Z,4.78
2023-01-11T19:38:41.901Z,4.55
2023-01-11T19:41:12.226Z,4.25
2023-01-11T19:43:44.995Z,4.88
2023-01-11T19:46:15.054Z,4.35
2023-01-11T19:51:14.639Z,3.58
2023-01-11T19:53:44.081Z,4.20
2023-01-11T19:56:12.089Z,4.00
2023-01-11T19:58:41.453Z,4.13
2023-01-11T20:01:11.777Z,4.40
2023-01-11T20:03:41.201Z,4.45
2023-01-11T20:06:11.069Z,4.40
2023-01-11T20:08:41.219Z,3.80
2023-01-11T20:11:10.404Z,3.72
2023-01-11T20:13:38.861Z,3.97
2023-01-11T20:16:07.984Z,3.10
2023-01-11T20:18:36.153Z,3.63
2023-01-11T20:21:04.264Z,3.58
2023-01-11T20:23:34.504Z,4.40
2023-01-11T20:26:03.954Z,3.70
2023-01-11T20:28:32.276Z,3.40
2023-01-11T20:31:02.218Z,4.20
2023-01-11T20:33:30.786Z,3.10
2023-01-11T20:35:58.730Z,3.47
2023-01-11T20:38:26.653Z,3.85
2023-01-11T20:40:55.947Z,3.30
2023-01-11T20:43:23.920Z,3.72
2023-01-11T20:45:56.419Z,3.60
2023-01-11T20:48:24.481Z,3.85
2023-01-11T20:50:52.448Z,3.08
2023-01-11T20:53:20.363Z,3.20
2023-01-11T20:55:48.383Z,3.00
2023-01-11T20:58:17.735Z,3.45
2023-01-11T21:00:47.978Z,3.33
2023-01-11T21:03:16.012Z,3.33
2023-01-11T21:05:44.088Z,3.30
2023-01-11T21:08:12.111Z,3.03
2023-01-11T21:10:40.094Z,3.50
2023-01-11T21:15:37.895Z,3.45
2023-01-11T21:18:07.186Z,2.95
2023-01-11T21:20:35.356Z,3.20
2023-01-11T21:23:03.427Z,2.90
2023-01-11T21:25:34.433Z,3.08
2023-01-11T21:28:03.164Z,3.08
2023-01-11T21:30:31.224Z,2.85
2023-01-11T21:33:02.888Z,2.83
2023-01-11T21:35:30.868Z,2.70
2023-01-11T21:37:58.833Z,3.13
2023-01-11T21:40:30.154Z,2.97
2023-01-11T21:42:59.112Z,2.95
2023-01-11T21:45:27.145Z,2.75
2023-01-11T21:47:55.105Z,3.38
2023-01-11T21:50:24.493Z,3.28
2023-01-11T21:52:54.713Z,2.97
2023-01-11T21:55:22.701Z,3.15
2023-01-11T21:57:50.715Z,2.45
2023-01-11T22:00:19.777Z,3.08
2023-01-11T22:02:51.027Z,2.40
2023-01-11T22:05:19.373Z,2.53
2023-01-11T22:07:48.658Z,2.75
2023-01-11T22:10:17.458Z,2.55
2023-01-11T22:12:45.408Z,2.78
2023-01-11T22:15:13.379Z,2.50
2023-01-11T22:17:41.539Z,2.47
2023-01-11T22:20:10.997Z,2.50
2023-01-11T22:22:38.979Z,2.45
2023-01-11T22:25:09.292Z,2.45
2023-01-11T22:27:37.205Z,2.30
2023-01-11T22:30:05.827Z,2.47
2023-01-11T22:32:33.776Z,2.63
2023-01-11T22:35:01.795Z,3.05
2023-01-11T22:37:32.340Z,2.50
2023-01-11T22:40:01.723Z,2.60
2023-01-11T22:42:31.340Z,2.83
2023-01-11T22:44:59.423Z,2.58
2023-01-11T22:47:27.389Z,2.95
2023-01-11T22:49:56.784Z,2.05
2023-01-11T22:52:26.757Z,2.70
2023-01-11T22:54:55.342Z,2.40
2023-01-11T22:57:23.371Z,2.35
2023-01-11T22:59:52.638Z,2.47
2023-01-11T23:02:20.636Z,2.80
2023-01-11T23:04:48.881Z,2.17
2023-01-11T23:07:16.947Z,2.72
2023-01-11T23:09:44.898Z,2.15
2023-01-11T23:12:30.146Z,2.20
2023-01-11T23:14:59.491Z,2.40
2023-01-11T23:17:29.689Z,2.28
2023-01-11T23:19:57.705Z,2.38
2023-01-11T23:22:25.789Z,2.15
2023-01-11T23:24:53.773Z,2.10
2023-01-11T23:27:21.769Z,2.30
2023-01-11T23:29:49.980Z,1.98
2023-01-11T23:32:19.311Z,2.35
2023-01-11T23:34:47.309Z,2.08
2023-01-11T23:37:15.298Z,1.80
2023-01-11T23:39:43.328Z,2.00
2023-01-11T23:42:26.678Z,1.80
2023-01-11T23:44:54.733Z,2.33
2023-01-11T23:47:25.182Z,1.92
2023-01-11T23:49:55.628Z,1.90
2023-01-11T23:52:25.499Z,1.98
2023-01-11T23:54:53.657Z,1.52
2023-01-11T23:57:25.719Z,2.00
2023-01-11T23:59:53.785Z,1.60
